sensor_id;sensor_type;location;lat;lon;timestamp;pressure;altitude;pressure_sealevel;temperature;humidity
21742;BME280;11033;47.490;11.116;2023-02-23T00:00:15;92806.84;;;5.94;64.42
21742;BME280;11033;47.490;11.116;2023-02-23T00:02:46;92807.66;;;5.95;64.46
21742;BME280;11033;47.490;11.116;2023-02-23T00:05:12;92812.88;;;5.87;64.80
21742;BME280;11033;47.490;11.116;2023-02-23T00:07:37;92812.88;;;5.95;64.27
21742;BME280;11033;47.490;11.116;2023-02-23T00:10:03;92809.97;;;5.73;66.44
21742;BME280;11033;47.490;11.116;2023-02-23T00:12:28;92807.81;;;5.77;66.27
21742;BME280;11033;47.490;11.116;2023-02-23T00:14:54;92813.53;;;5.81;64.03
21742;BME280;11033;47.490;11.116;2023-02-23T00:17:19;92812.88;;;5.79;65.50
21742;BME280;11033;47.490;11.116;2023-02-23T00:19:46;92807.34;;;5.90;64.48
21742;BME280;11033;47.490;11.116;2023-02-23T00:22:13;92807.66;;;5.87;63.43
21742;BME280;11033;47.490;11.116;2023-02-23T00:24:38;92808.97;;;5.74;65.66
21742;BME280;11033;47.490;11.116;2023-02-23T00:27:06;92810.09;;;5.88;64.01
21742;BME280;11033;47.490;11.116;2023-02-23T00:29:31;92810.97;;;5.64;66.33
21742;BME280;11033;47.490;11.116;2023-02-23T00:32:03;92810.31;;;5.70;65.47
21742;BME280;11033;47.490;11.116;2023-02-23T00:34:28;92813.13;;;5.61;65.97
21742;BME280;11033;47.490;11.116;2023-02-23T00:36:53;92811.81;;;5.57;64.64
21742;BME280;11033;47.490;11.116;2023-02-23T00:39:20;92813.97;;;5.45;67.00
21742;BME280;11033;47.490;11.116;2023-02-23T00:41:54;92814.66;;;5.39;66.75
21742;BME280;11033;47.490;11.116;2023-02-23T00:44:20;92814.03;;;5.29;67.58
21742;BME280;11033;47.490;11.116;2023-02-23T00:46:47;92818.19;;;5.54;64.90
21742;BME280;11033;47.490;11.116;2023-02-23T00:49:15;92814.34;;;5.34;66.57
21742;BME280;11033;47.490;11.116;2023-02-23T00:51:41;92808.75;;;5.45;65.69
21742;BME280;11033;47.490;11.116;2023-02-23T00:54:07;92806.84;;;5.31;67.75
21742;BME280;11033;47.490;11.116;2023-02-23T00:56:33;92811.41;;;5.29;67.36
21742;BME280;11033;47.490;11.116;2023-02-23T00:58:58;92805.34;;;5.36;66.80
21742;BME280;11033;47.490;11.116;2023-02-23T01:01:23;92814.34;;;5.26;67.38
21742;BME280;11033;47.490;11.116;2023-02-23T01:03:49;92808.66;;;5.22;67.28
21742;BME280;11033;47.490;11.116;2023-02-23T01:06:17;92814.03;;;5.29;65.95
21742;BME280;11033;47.490;11.116;2023-02-23T01:08:48;92809.75;;;5.36;66.58
21742;BME280;11033;47.490;11.116;2023-02-23T01:11:17;92812.56;;;5.26;66.90
21742;BME280;11033;47.490;11.116;2023-02-23T01:13:43;92829.84;;;5.19;67.53
21742;BME280;11033;47.490;11.116;2023-02-23T01:16:11;92822.53;;;4.90;68.82
21742;BME280;11033;47.490;11.116;2023-02-23T01:18:38;92826.75;;;5.16;68.23
21742;BME280;11033;47.490;11.116;2023-02-23T01:21:05;92822.69;;;5.21;67.43
21742;BME280;11033;47.490;11.116;2023-02-23T01:23:37;92827.41;;;5.09;68.54
21742;BME280;11033;47.490;11.116;2023-02-23T01:26:02;92820.56;;;5.00;68.31
21742;BME280;11033;47.490;11.116;2023-02-23T01:28:28;92826.91;;;5.14;67.14
21742;BME280;11033;47.490;11.116;2023-02-23T01:30:53;92822.53;;;4.98;69.02
21742;BME280;11033;47.490;11.116;2023-02-23T01:33:18;92821.53;;;4.99;67.86
21742;BME280;11033;47.490;11.116;2023-02-23T01:35:43;92810.28;;;5.23;65.75
21742;BME280;11033;47.490;11.116;2023-02-23T01:38:10;92821.53;;;5.07;68.04
21742;BME280;11033;47.490;11.116;2023-02-23T01:40:35;92818.63;;;4.94;68.69
21742;BME280;11033;47.490;11.116;2023-02-23T01:43:21;92812.09;;;4.66;69.84
21742;BME280;11033;47.490;11.116;2023-02-23T01:45:50;92812.75;;;4.76;68.84
21742;BME280;11033;47.490;11.116;2023-02-23T01:48:21;92816.34;;;4.75;69.11
21742;BME280;11033;47.490;11.116;2023-02-23T01:51:07;92806.72;;;4.67;68.32
21742;BME280;11033;47.490;11.116;2023-02-23T01:53:35;92814.06;;;4.64;68.07
21742;BME280;11033;47.490;11.116;2023-02-23T01:56:14;92811.44;;;4.56;69.55
21742;BME280;11033;47.490;11.116;2023-02-23T01:58:44;92807.22;;;4.63;68.09
21742;BME280;11033;47.490;11.116;2023-02-23T02:01:10;92804.13;;;4.67;68.17
21742;BME280;11033;47.490;11.116;2023-02-23T02:03:46;92805.91;;;4.59;68.59
21742;BME280;11033;47.490;11.116;2023-02-23T02:06:15;92804.25;;;4.50;69.57
21742;BME280;11033;47.490;11.116;2023-02-23T02:08:46;92802.28;;;4.43;69.22
21742;BME280;11033;47.490;11.116;2023-02-23T02:11:13;92806.53;;;4.36;69.77
21742;BME280;11033;47.490;11.116;2023-02-23T02:13:58;92799.03;;;4.41;69.85
21742;BME280;11033;47.490;11.116;2023-02-23T02:41:27;92794.19;;;3.88;72.28
21742;BME280;11033;47.490;11.116;2023-02-23T02:44:08;92783.13;;;3.86;72.95
21742;BME280;11033;47.490;11.116;2023-02-23T02:46:40;92785.94;;;4.01;71.34
21742;BME280;11033;47.490;11.116;2023-02-23T02:49:13;92785.78;;;3.94;71.52
21742;BME280;11033;47.490;11.116;2023-02-23T02:52:05;92784.97;;;4.02;69.11
21742;BME280;11033;47.490;11.116;2023-02-23T02:54:32;92789.22;;;4.03;71.05
21742;BME280;11033;47.490;11.116;2023-02-23T02:57:02;92780.41;;;4.04;70.77
21742;BME280;11033;47.490;11.116;2023-02-23T02:59:28;92783.66;;;3.98;70.21
21742;BME280;11033;47.490;11.116;2023-02-23T03:02:16;92784.97;;;4.02;70.32
21742;BME280;11033;47.490;11.116;2023-02-23T03:05:00;92779.94;;;4.08;69.85
21742;BME280;11033;47.490;11.116;2023-02-23T03:08:09;92782.53;;;4.08;69.70
21742;BME280;11033;47.490;11.116;2023-02-23T03:11:09;92776.84;;;4.05;72.29
21742;BME280;11033;47.490;11.116;2023-02-23T03:20:22;92788.25;;;4.20;71.78
21742;BME280;11033;47.490;11.116;2023-02-23T03:26:30;92777.34;;;4.33;71.45
21742;BME280;11033;47.490;11.116;2023-02-23T03:29:38;92784.03;;;4.43;69.86
21742;BME280;11033;47.490;11.116;2023-02-23T03:32:30;92779.00;;;4.42;70.66
21742;BME280;11033;47.490;11.116;2023-02-23T03:35:29;92780.13;;;4.39;70.18
21742;BME280;11033;47.490;11.116;2023-02-23T03:41:19;92783.88;;;4.45;70.20
21742;BME280;11033;47.490;11.116;2023-02-23T03:44:09;92779.16;;;4.49;71.26
21742;BME280;11033;47.490;11.116;2023-02-23T03:46:56;92782.09;;;4.54;69.73
21742;BME280;11033;47.490;11.116;2023-02-23T03:49:41;92785.06;;;4.59;71.08
21742;BME280;11033;47.490;11.116;2023-02-23T03:52:32;92787.66;;;4.67;71.32
21742;BME280;11033;47.490;11.116;2023-02-23T03:55:26;92789.94;;;4.62;70.97
21742;BME280;11033;47.490;11.116;2023-02-23T03:58:14;92781.47;;;4.60;71.26
21742;BME280;11033;47.490;11.116;2023-02-23T04:01:02;92784.06;;;4.60;72.89
21742;BME280;11033;47.490;11.116;2023-02-23T04:03:47;92787.97;;;4.64;71.55
21742;BME280;11033;47.490;11.116;2023-02-23T04:06:37;92787.00;;;4.73;70.85
21742;BME280;11033;47.490;11.116;2023-02-23T04:09:22;92784.72;;;4.70;71.18
21742;BME280;11033;47.490;11.116;2023-02-23T04:12:15;92787.00;;;4.73;71.21
21742;BME280;11033;47.490;11.116;2023-02-23T04:15:10;92785.03;;;4.75;71.01
21742;BME280;11033;47.490;11.116;2023-02-23T04:17:36;92785.03;;;4.83;68.16
21742;BME280;11033;47.490;11.116;2023-02-23T04:20:02;92788.28;;;4.85;70.93
21742;BME280;11033;47.490;11.116;2023-02-23T04:22:28;92789.94;;;4.86;70.06
21742;BME280;11033;47.490;11.116;2023-02-23T04:24:53;92793.84;;;4.82;71.50
21742;BME280;11033;47.490;11.116;2023-02-23T04:27:19;92788.78;;;4.81;70.93
21742;BME280;11033;47.490;11.116;2023-02-23T04:29:44;92786.00;;;4.82;70.20
21742;BME280;11033;47.490;11.116;2023-02-23T04:32:12;92792.19;;;4.89;71.56
21742;BME280;11033;47.490;11.116;2023-02-23T04:34:39;92790.25;;;4.91;70.51
21742;BME280;11033;47.490;11.116;2023-02-23T04:37:04;92786.50;;;4.86;70.96
21742;BME280;11033;47.490;11.116;2023-02-23T04:39:30;92776.22;;;4.92;70.58
21742;BME280;11033;47.490;11.116;2023-02-23T04:41:55;92779.47;;;4.94;69.63
21742;BME280;11033;47.490;11.116;2023-02-23T04:44:20;92775.41;;;4.92;70.83
21742;BME280;11033;47.490;11.116;2023-02-23T04:46:45;92777.84;;;4.93;69.92
21742;BME280;11033;47.490;11.116;2023-02-23T04:49:11;92779.97;;;4.98;68.42
21742;BME280;11033;47.490;11.116;2023-02-23T04:51:36;92773.78;;;4.91;69.96
21742;BME280;11033;47.490;11.116;2023-02-23T04:54:02;92781.09;;;4.95;71.24
21742;BME280;11033;47.490;11.116;2023-02-23T04:56:28;92783.06;;;4.93;70.09
21742;BME280;11033;47.490;11.116;2023-02-23T04:58:53;92783.06;;;4.93;70.17
21742;BME280;11033;47.490;11.116;2023-02-23T05:01:19;92779.47;;;4.94;70.64
21742;BME280;11033;47.490;11.116;2023-02-23T05:03:46;92781.75;;;4.89;70.32
21742;BME280;11033;47.490;11.116;2023-02-23T05:06:11;92781.91;;;4.96;70.44
21742;BME280;11033;47.490;11.116;2023-02-23T05:08:37;92788.13;;;4.95;71.66
21742;BME280;11033;47.490;11.116;2023-02-23T05:11:02;92786.34;;;4.87;71.92
21742;BME280;11033;47.490;11.116;2023-02-23T05:13:27;92780.94;;;4.97;69.26
21742;BME280;11033;47.490;11.116;2023-02-23T05:15:56;92780.28;;;4.95;71.03
21742;BME280;11033;47.490;11.116;2023-02-23T05:18:22;92776.69;;;4.96;71.16
21742;BME280;11033;47.490;11.116;2023-02-23T05:20:49;92769.84;;;4.95;71.59
21742;BME280;11033;47.490;11.116;2023-02-23T05:23:14;92767.75;;;4.90;72.10
21742;BME280;11033;47.490;11.116;2023-02-23T05:25:39;92769.34;;;5.07;70.83
21742;BME280;11033;47.490;11.116;2023-02-23T05:28:05;92767.75;;;4.90;71.86
21742;BME280;11033;47.490;11.116;2023-02-23T05:30:30;92777.50;;;4.96;70.51
21742;BME280;11033;47.490;11.116;2023-02-23T05:32:55;92778.81;;;5.00;70.84
21742;BME280;11033;47.490;11.116;2023-02-23T05:35:21;92775.22;;;5.01;70.76
21742;BME280;11033;47.490;11.116;2023-02-23T05:37:46;92776.03;;;5.02;70.81
21742;BME280;11033;47.490;11.116;2023-02-23T05:40:12;92776.19;;;5.08;69.99
21742;BME280;11033;47.490;11.116;2023-02-23T05:42:37;92776.19;;;5.08;69.92
21742;BME280;11033;47.490;11.116;2023-02-23T05:45:03;92780.63;;;4.92;71.78
21742;BME280;11033;47.490;11.116;2023-02-23T05:47:30;92781.91;;;4.96;71.16
21742;BME280;11033;47.490;11.116;2023-02-23T05:49:56;92773.78;;;4.91;71.94
21742;BME280;11033;47.490;11.116;2023-02-23T05:52:21;92775.72;;;4.89;71.76
21742;BME280;11033;47.490;11.116;2023-02-23T05:54:47;92773.94;;;4.97;71.48
21742;BME280;11033;47.490;11.116;2023-02-23T05:57:12;92773.25;;;5.12;70.83
21742;BME280;11033;47.490;11.116;2023-02-23T05:59:37;92780.94;;;5.05;71.78
21742;BME280;11033;47.490;11.116;2023-02-23T06:02:03;92776.53;;;5.05;71.47
21742;BME280;11033;47.490;11.116;2023-02-23T06:04:30;92779.63;;;5.09;71.36
21742;BME280;11033;47.490;11.116;2023-02-23T06:06:55;92781.75;;;5.05;71.88
21742;BME280;11033;47.490;11.116;2023-02-23T06:09:20;92774.38;;;5.09;70.66
21742;BME280;11033;47.490;11.116;2023-02-23T06:11:46;92783.88;;;5.02;71.81
21742;BME280;11033;47.490;11.116;2023-02-23T06:14:11;92788.41;;;5.16;69.22
21742;BME280;11033;47.490;11.116;2023-02-23T06:16:37;92788.25;;;5.09;70.93
21742;BME280;11033;47.490;11.116;2023-02-23T06:19:03;92789.22;;;5.25;69.16
21742;BME280;11033;47.490;11.116;2023-02-23T06:21:28;92785.66;;;5.09;71.55
21742;BME280;11033;47.490;11.116;2023-02-23T06:23:53;92797.72;;;5.10;70.71
21742;BME280;11033;47.490;11.116;2023-02-23T06:26:19;92797.41;;;5.05;71.62
21742;BME280;11033;47.490;11.116;2023-02-23T06:28:44;92800.31;;;5.10;71.70
21742;BME280;11033;47.490;11.116;2023-02-23T06:31:09;92796.88;;;5.18;70.11
21742;BME280;11033;47.490;11.116;2023-02-23T06:33:36;92795.75;;;5.21;71.09
21742;BME280;11033;47.490;11.116;2023-02-23T06:36:01;92799.34;;;5.12;71.91
21742;BME280;11033;47.490;11.116;2023-02-23T06:38:26;92801.81;;;5.21;70.97
21742;BME280;11033;47.490;11.116;2023-02-23T06:40:52;92806.69;;;5.24;70.33
21742;BME280;11033;47.490;11.116;2023-02-23T06:43:17;92809.13;;;5.34;69.80
21742;BME280;11033;47.490;11.116;2023-02-23T06:45:42;92809.63;;;5.29;70.34
21742;BME280;11033;47.490;11.116;2023-02-23T06:48:08;92820.88;;;5.30;68.79
21742;BME280;11033;47.490;11.116;2023-02-23T06:50:33;92819.25;;;5.29;68.87
21742;BME280;11033;47.490;11.116;2023-02-23T06:52:58;92822.66;;;5.37;69.04
21742;BME280;11033;47.490;11.116;2023-02-23T06:55:23;92822.16;;;5.34;70.22
21742;BME280;11033;47.490;11.116;2023-02-23T06:57:49;92823.81;;;5.35;70.33
21742;BME280;11033;47.490;11.116;2023-02-23T07:00:16;92832.28;;;5.37;70.70
21742;BME280;11033;47.490;11.116;2023-02-23T07:02:42;92833.44;;;5.34;71.65
21742;BME280;11033;47.490;11.116;2023-02-23T07:05:09;92829.31;;;5.48;70.65
21742;BME280;11033;47.490;11.116;2023-02-23T07:07:35;92835.19;;;5.50;70.07
21742;BME280;11033;47.490;11.116;2023-02-23T07:10:01;92842.19;;;5.58;70.46
21742;BME280;11033;47.490;11.116;2023-02-23T07:12:26;92844.78;;;5.58;70.23
21742;BME280;11033;47.490;11.116;2023-02-23T07:14:51;92834.53;;;5.48;71.13
21742;BME280;11033;47.490;11.116;2023-02-23T07:17:17;92831.22;;;5.62;70.29
21742;BME280;11033;47.490;11.116;2023-02-23T07:19:42;92833.69;;;5.64;69.46
21742;BME280;11033;47.490;11.116;2023-02-23T07:22:08;92829.91;;;5.66;68.54
21742;BME280;11033;47.490;11.116;2023-02-23T07:24:33;92832.81;;;5.80;67.94
21742;BME280;11033;47.490;11.116;2023-02-23T07:26:59;92840.50;;;5.73;67.53
21742;BME280;11033;47.490;11.116;2023-02-23T07:29:24;92833.81;;;5.70;68.54
21742;BME280;11033;47.490;11.116;2023-02-23T07:31:51;92833.47;;;5.73;68.73
21742;BME280;11033;47.490;11.116;2023-02-23T07:34:16;92831.81;;;5.81;67.76
21742;BME280;11033;47.490;11.116;2023-02-23T07:36:42;92836.25;;;5.72;68.12
21742;BME280;11033;47.490;11.116;2023-02-23T07:39:07;92831.34;;;5.77;68.37
21742;BME280;11033;47.490;11.116;2023-02-23T07:41:32;92835.25;;;5.81;68.17
21742;BME280;11033;47.490;11.116;2023-02-23T07:43:58;92828.56;;;5.87;68.12
21742;BME280;11033;47.490;11.116;2023-02-23T07:46:24;92833.78;;;5.95;68.69
21742;BME280;11033;47.490;11.116;2023-02-23T07:48:50;92834.44;;;5.97;69.27
21742;BME280;11033;47.490;11.116;2023-02-23T07:51:15;92829.34;;;6.03;68.77
21742;BME280;11033;47.490;11.116;2023-02-23T07:53:41;92835.63;;;6.17;67.30
21742;BME280;11033;47.490;11.116;2023-02-23T07:56:08;92828.78;;;6.16;68.08
21742;BME280;11033;47.490;11.116;2023-02-23T07:58:38;92827.41;;;6.28;67.99
21742;BME280;11033;47.490;11.116;2023-02-23T08:01:04;92842.69;;;6.40;69.46
21742;BME280;11033;47.490;11.116;2023-02-23T08:03:29;92831.19;;;6.49;67.98
21742;BME280;11033;47.490;11.116;2023-02-23T08:05:55;92836.75;;;6.54;69.43
21742;BME280;11033;47.490;11.116;2023-02-23T08:08:20;92839.97;;;6.64;69.28
21742;BME280;11033;47.490;11.116;2023-02-23T08:10:46;92837.47;;;6.71;68.93
21742;BME280;11033;47.490;11.116;2023-02-23T08:13:12;92838.56;;;6.76;68.64
21742;BME280;11033;47.490;11.116;2023-02-23T08:15:38;92831.47;;;6.85;66.46
21742;BME280;11033;47.490;11.116;2023-02-23T08:18:03;92838.63;;;6.91;67.86
21742;BME280;11033;47.490;11.116;2023-02-23T08:20:29;92839.78;;;6.88;67.28
21742;BME280;11033;47.490;11.116;2023-02-23T08:22:56;92833.41;;;7.06;66.30
21742;BME280;11033;47.490;11.116;2023-02-23T08:25:22;92834.06;;;7.08;65.53
21742;BME280;11033;47.490;11.116;2023-02-23T08:27:48;92840.81;;;7.25;65.08
21742;BME280;11033;47.490;11.116;2023-02-23T08:30:17;92840.56;;;7.35;65.32
21742;BME280;11033;47.490;11.116;2023-02-23T08:32:43;92843.00;;;7.36;66.17
21742;BME280;11033;47.490;11.116;2023-02-23T08:35:09;92835.78;;;7.38;64.67
21742;BME280;11033;47.490;11.116;2023-02-23T08:37:34;92831.25;;;7.47;66.44
21742;BME280;11033;47.490;11.116;2023-02-23T08:39:59;92834.63;;;7.55;65.86
21742;BME280;11033;47.490;11.116;2023-02-23T08:42:25;92828.94;;;7.67;64.22
21742;BME280;11033;47.490;11.116;2023-02-23T08:44:51;92835.44;;;7.71;64.40
21742;BME280;11033;47.490;11.116;2023-02-23T08:47:16;92835.06;;;7.74;64.07
21742;BME280;11033;47.490;11.116;2023-02-23T08:49:45;92832.72;;;7.79;64.51
21742;BME280;11033;47.490;11.116;2023-02-23T08:52:11;92826.31;;;7.96;63.78
21742;BME280;11033;47.490;11.116;2023-02-23T08:54:36;92822.97;;;7.73;64.60
21742;BME280;11033;47.490;11.116;2023-02-23T08:57:01;92829.13;;;8.09;63.88
21742;BME280;11033;47.490;11.116;2023-02-23T08:59:26;92829.91;;;8.24;63.80
21742;BME280;11033;47.490;11.116;2023-02-23T09:01:52;92827.84;;;8.35;63.71
21742;BME280;11033;47.490;11.116;2023-02-23T09:04:17;92830.91;;;8.53;62.59
21742;BME280;11033;47.490;11.116;2023-02-23T09:06:44;92828.97;;;8.62;62.27
21742;BME280;11033;47.490;11.116;2023-02-23T09:09:10;92827.66;;;8.51;62.38
21742;BME280;11033;47.490;11.116;2023-02-23T09:11:35;92829.16;;;8.81;62.33
21742;BME280;11033;47.490;11.116;2023-02-23T09:14:00;92829.66;;;8.92;62.00
21742;BME280;11033;47.490;11.116;2023-02-23T09:16:26;92829.34;;;9.01;61.07
21742;BME280;11033;47.490;11.116;2023-02-23T09:18:51;92823.66;;;9.19;61.79
21742;BME280;11033;47.490;11.116;2023-02-23T09:21:18;92835.28;;;9.31;62.04
21742;BME280;11033;47.490;11.116;2023-02-23T09:23:46;92822.09;;;9.52;60.52
21742;BME280;11033;47.490;11.116;2023-02-23T09:26:14;92823.44;;;9.70;60.57
21742;BME280;11033;47.490;11.116;2023-02-23T09:28:40;92814.66;;;9.84;60.53
21742;BME280;11033;47.490;11.116;2023-02-23T09:31:11;92821.56;;;9.92;59.69
21742;BME280;11033;47.490;11.116;2023-02-23T09:33:38;92824.06;;;10.06;59.80
21742;BME280;11033;47.490;11.116;2023-02-23T09:36:15;92824.53;;;10.16;58.34
21742;BME280;11033;47.490;11.116;2023-02-23T09:38:48;92816.91;;;10.28;59.17
21742;BME280;11033;47.490;11.116;2023-02-23T09:47:27;92827.63;;;10.27;57.93
21742;BME280;11033;47.490;11.116;2023-02-23T09:49:58;92813.91;;;10.38;58.01
21742;BME280;11033;47.490;11.116;2023-02-23T09:52:28;92827.03;;;10.25;58.03
21742;BME280;11033;47.490;11.116;2023-02-23T09:54:59;92811.72;;;10.41;57.40
21742;BME280;11033;47.490;11.116;2023-02-23T09:57:37;92819.44;;;10.43;57.36
21742;BME280;11033;47.490;11.116;2023-02-23T10:02:50;92823.28;;;10.47;57.35
21742;BME280;11033;47.490;11.116;2023-02-23T10:05:20;92826.38;;;10.57;55.69
21742;BME280;11033;47.490;11.116;2023-02-23T10:08:00;92819.88;;;10.53;56.06
21742;BME280;11033;47.490;11.116;2023-02-23T10:15:51;92816.84;;;10.56;56.49
21742;BME280;11033;47.490;11.116;2023-02-23T10:23:25;92816.75;;;11.04;56.28
21742;BME280;11033;47.490;11.116;2023-02-23T10:25:55;92811.50;;;11.17;55.22
21742;BME280;11033;47.490;11.116;2023-02-23T10:28:23;92817.19;;;11.27;54.46
21742;BME280;11033;47.490;11.116;2023-02-23T10:30:51;92811.72;;;11.09;55.21
21742;BME280;11033;47.490;11.116;2023-02-23T10:33:30;92813.72;;;11.07;54.71
21742;BME280;11033;47.490;11.116;2023-02-23T10:36:01;92811.50;;;11.17;55.09
21742;BME280;11033;47.490;11.116;2023-02-23T10:38:34;92813.13;;;11.31;55.36
21742;BME280;11033;47.490;11.116;2023-02-23T10:40:59;92805.81;;;11.07;55.70
21742;BME280;11033;47.490;11.116;2023-02-23T10:43:26;92806.66;;;11.40;55.11
21742;BME280;11033;47.490;11.116;2023-02-23T10:45:52;92797.72;;;11.55;55.31
21742;BME280;11033;47.490;11.116;2023-02-23T10:48:23;92805.81;;;11.60;55.58
21742;BME280;11033;47.490;11.116;2023-02-23T10:50:53;92798.13;;;11.52;55.36
21742;BME280;11033;47.490;11.116;2023-02-23T10:53:26;92799.75;;;11.53;56.55
21742;BME280;11033;47.490;11.116;2023-02-23T10:56:12;92799.34;;;11.56;55.28
21742;BME280;11033;47.490;11.116;2023-02-23T10:58:48;92794.88;;;11.50;55.41
21742;BME280;11033;47.490;11.116;2023-02-23T11:04:19;92793.63;;;11.65;55.20
21742;BME280;11033;47.490;11.116;2023-02-23T11:06:46;92783.53;;;11.82;55.05
21742;BME280;11033;47.490;11.116;2023-02-23T11:09:28;92783.47;;;12.02;55.50
21742;BME280;11033;47.490;11.116;2023-02-23T11:12:03;92780.25;;;11.87;55.10
21742;BME280;11033;47.490;11.116;2023-02-23T11:14:39;92782.22;;;12.11;54.88
21742;BME280;11033;47.490;11.116;2023-02-23T11:17:04;92774.22;;;12.31;54.89
21742;BME280;11033;47.490;11.116;2023-02-23T11:19:34;92783.31;;;12.48;54.29
21742;BME280;11033;47.490;11.116;2023-02-23T11:22:02;92775.25;;;12.36;53.35
21742;BME280;11033;47.490;11.116;2023-02-23T11:24:32;92768.63;;;12.59;54.48
21742;BME280;11033;47.490;11.116;2023-02-23T11:27:01;92769.44;;;12.59;53.48
21742;BME280;11033;47.490;11.116;2023-02-23T11:29:34;92760.16;;;12.50;53.51
21742;BME280;11033;47.490;11.116;2023-02-23T11:32:08;92762.81;;;12.82;53.81
21742;BME280;11033;47.490;11.116;2023-02-23T11:34:38;92752.91;;;13.09;53.66
21742;BME280;11033;47.490;11.116;2023-02-23T11:39:54;92743.97;;;13.35;52.84
21742;BME280;11033;47.490;11.116;2023-02-23T11:42:26;92750.00;;;13.42;52.08
21742;BME280;11033;47.490;11.116;2023-02-23T11:47:26;92736.34;;;13.45;52.25
21742;BME280;11033;47.490;11.116;2023-02-23T11:49:53;92727.84;;;13.61;51.61
21742;BME280;11033;47.490;11.116;2023-02-23T11:52:21;92721.53;;;13.62;52.00
21742;BME280;11033;47.490;11.116;2023-02-23T11:54:59;92735.03;;;13.54;52.12
21742;BME280;11033;47.490;11.116;2023-02-23T11:57:28;92719.06;;;13.42;52.62
21742;BME280;11033;47.490;11.116;2023-02-23T11:59:56;92725.91;;;13.50;52.08
21742;BME280;11033;47.490;11.116;2023-02-23T12:02:26;92723.28;;;13.25;52.04
21742;BME280;11033;47.490;11.116;2023-02-23T12:05:23;92722.09;;;13.21;52.61
21742;BME280;11033;47.490;11.116;2023-02-23T12:10:31;92721.13;;;12.84;53.60
21742;BME280;11033;47.490;11.116;2023-02-23T12:15:42;92706.22;;;12.89;52.90
21742;BME280;11033;47.490;11.116;2023-02-23T12:21:28;92714.31;;;12.25;54.78
21742;BME280;11033;47.490;11.116;2023-02-23T12:23:50;92713.00;;;12.47;54.20
21742;BME280;11033;47.490;11.116;2023-02-23T12:26:20;92701.28;;;12.30;54.76
21742;BME280;11033;47.490;11.116;2023-02-23T12:28:52;92703.25;;;12.48;53.86
21742;BME280;11033;47.490;11.116;2023-02-23T12:34:23;92698.44;;;12.38;54.66
21742;BME280;11033;47.490;11.116;2023-02-23T12:36:57;92703.66;;;12.06;55.67
21742;BME280;11033;47.490;11.116;2023-02-23T12:39:32;92697.19;;;11.96;56.57
21742;BME280;11033;47.490;11.116;2023-02-23T12:45:00;92694.00;;;11.74;56.89
21742;BME280;11033;47.490;11.116;2023-02-23T12:47:36;92689.31;;;11.89;57.56
21742;BME280;11033;47.490;11.116;2023-02-23T12:50:31;92690.25;;;12.08;56.28
21742;BME280;11033;47.490;11.116;2023-02-23T12:53:01;92685.28;;;11.73;57.74
21742;BME280;11033;47.490;11.116;2023-02-23T12:55:38;92690.16;;;11.63;58.98
21742;BME280;11033;47.490;11.116;2023-02-23T12:58:25;92689.72;;;11.86;57.56
21742;BME280;11033;47.490;11.116;2023-02-23T13:01:07;92682.78;;;11.98;56.99
21742;BME280;11033;47.490;11.116;2023-02-23T13:04:02;92688.53;;;11.82;57.58
21742;BME280;11033;47.490;11.116;2023-02-23T13:11:55;92682.03;;;11.78;58.03
21742;BME280;11033;47.490;11.116;2023-02-23T13:16:56;92680.97;;;11.92;57.14
21742;BME280;11033;47.490;11.116;2023-02-23T13:19:36;92685.22;;;11.93;57.42
21742;BME280;11033;47.490;11.116;2023-02-23T13:22:30;92685.66;;;11.90;57.30
21742;BME280;11033;47.490;11.116;2023-02-23T13:25:01;92687.69;;;11.88;58.01
21742;BME280;11033;47.490;11.116;2023-02-23T13:27:33;92682.03;;;11.65;58.42
21742;BME280;11033;47.490;11.116;2023-02-23T13:30:00;92686.50;;;11.64;58.92
21742;BME280;11033;47.490;11.116;2023-02-23T13:32:29;92687.28;;;11.85;57.86
21742;BME280;11033;47.490;11.116;2023-02-23T13:35:03;92692.38;;;11.73;58.79
21742;BME280;11033;47.490;11.116;2023-02-23T13:45:25;92689.34;;;11.63;58.33
21742;BME280;11033;47.490;11.116;2023-02-23T13:51:11;92691.97;;;11.76;57.69
21742;BME280;11033;47.490;11.116;2023-02-23T13:53:39;92700.91;;;11.75;58.18
21742;BME280;11033;47.490;11.116;2023-02-23T13:56:16;92690.34;;;11.75;59.09
21742;BME280;11033;47.490;11.116;2023-02-23T13:59:00;92697.25;;;11.63;58.93
21742;BME280;11033;47.490;11.116;2023-02-23T14:01:32;92698.47;;;11.67;58.48
21742;BME280;11033;47.490;11.116;2023-02-23T14:04:02;92698.47;;;11.67;59.05
21742;BME280;11033;47.490;11.116;2023-02-23T14:06:30;92699.69;;;11.71;58.69
21742;BME280;11033;47.490;11.116;2023-02-23T14:09:08;92698.66;;;11.65;59.51
21742;BME280;11033;47.490;11.116;2023-02-23T14:11:43;92693.78;;;11.69;58.75
21742;BME280;11033;47.490;11.116;2023-02-23T14:14:37;92697.84;;;11.85;57.86
21742;BME280;11033;47.490;11.116;2023-02-23T14:22:25;92688.69;;;11.87;58.65
21742;BME280;11033;47.490;11.116;2023-02-23T14:28:03;92684.41;;;11.93;58.51
21742;BME280;11033;47.490;11.116;2023-02-23T14:30:47;92686.91;;;11.81;58.27
21742;BME280;11033;47.490;11.116;2023-02-23T14:36:00;92692.38;;;11.86;58.69
21742;BME280;11033;47.490;11.116;2023-02-23T14:38:29;92690.75;;;11.85;58.07
21742;BME280;11033;47.490;11.116;2023-02-23T14:40:56;92694.59;;;11.76;57.77
21742;BME280;11033;47.490;11.116;2023-02-23T14:46:00;92687.50;;;11.83;58.28
21742;BME280;11033;47.490;11.116;2023-02-23T14:48:30;92687.66;;;11.95;56.87
21742;BME280;11033;47.490;11.116;2023-02-23T14:51:10;92689.31;;;11.89;57.26
21742;BME280;11033;47.490;11.116;2023-02-23T14:53:40;92694.41;;;11.84;56.83
21742;BME280;11033;47.490;11.116;2023-02-23T14:56:17;92691.34;;;11.87;57.59
21742;BME280;11033;47.490;11.116;2023-02-23T14:58:48;92696.63;;;11.74;58.67
21742;BME280;11033;47.490;11.116;2023-02-23T15:01:32;92689.94;;;11.71;58.05
21742;BME280;11033;47.490;11.116;2023-02-23T15:04:09;92689.31;;;11.76;57.33
21742;BME280;11033;47.490;11.116;2023-02-23T15:06:36;92690.94;;;11.77;57.64